Nearby METAR Reports

 

KDWH - Houston/Dw Hooks, Texas, USA
Distance from station: WNW 3mi, 6km
Updated: 04/05/2020 12:53pm
Overcast
Overcast
 Wind from NE
Wind: NE 8 mph , 13 km/h
Temperature: 66°F , 19°C
Dew Point: 57°F , 14°C
Humidity: 73%
Barometer: 30.07 inHg , 1018.3 hPa
Clouds: Overcast
Visibility: 10 miles , 16 km
Cloud details: Mostly cloudy 1300 ft
Overcast 2900 ft
2020/04/05 17:53 KDWH 051753Z 05007KT 10SM BKN013 OVC029 19/14 A3007 RMK AO2 SLP182 T01940144 10206 20122 50000
KIAH - Houston/Intnl, Texas, USA
Distance from station: ESE 9mi, 14km
Updated: 04/05/2020 12:53pm
Overcast
Overcast
 Wind from ENE
Wind: ENE 9 mph , 15 km/h
Temperature: 66°F , 19°C
Dew Point: 61°F , 16°C
Humidity: 83%
Barometer: 30.07 inHg , 1018.3 hPa
Clouds: Overcast
Visibility: 10 miles , 16 km
Cloud details: Overcast 1100 ft
2020/04/05 17:53 KIAH 051753Z 06008KT 10SM OVC011 19/16 A3007 RMK AO2 SLP181 T01940156 10194 20144 58002
 
KCXO - Conroe, Texas, USA
Distance from station: NNE 21mi, 34km
Updated: 04/05/2020 1:46pm
Overcast
Overcast
 Wind from E
Wind: E 8 mph , 13 km/h
Temperature: 66°F , 19°C
Dew Point: 61°F , 16°C
Humidity: 83%
Barometer: 30.06 inHg , 1017.9 hPa
Clouds: Overcast
Visibility: 10 miles , 16 km
Cloud details: Mostly cloudy 1500 ft
Overcast 2400 ft
2020/04/05 18:46 KCXO 051846Z 08007KT 10SM BKN015 OVC024 19/16 A3006 RMK AO2 T01890156
KMCJ - Houston/Univ, Texas, USA
Distance from station: SSE 24mi, 39km
Updated: 02/19/2020 9:15am
NOT Current

 
2020/02/19 15:15 KMCJ 191515Z AUTO RMK A01 PNO
 
KTME - Houston Exec, Texas, USA
Distance from station: SW 30mi, 48km
Updated: 04/05/2020 1:35pm
Mostly cloudy
Mostly cloudy
 Wind from ENE
Wind: ENE 15 mph , 24 km/h
Temperature: 72°F , 22°C
Dew Point: 63°F , 17°C
Humidity: 73%
Barometer: 30.05 inHg , 1017.6 hPa
Clouds: Mostly cloudy
Visibility: 10 miles , 16 km
Cloud details: Partly cloudy 2000 ft
Mostly cloudy 2600 ft
2020/04/05 18:35 KTME 051835Z AUTO 06013KT 10SM SCT020 BKN026 22/17 A3005 RMK AO2
KHOU - Houston/Hobby, Texas, USA
Distance from station: SSE 32mi, 51km
Updated: 04/05/2020 1:28pm
Mostly cloudy
Mostly cloudy
 Wind from NE
Wind: NE 15 mph , 24 km/h
Temperature: 72°F , 22°C
Dew Point: 61°F , 16°C
Humidity: 69%
Barometer: 30.03 inHg , 1016.9 hPa
Clouds: Mostly cloudy
Visibility: 10 miles , 16 km
Cloud details: Partly cloudy 2400 ft
Mostly cloudy 3400 ft
Mostly cloudy 12000 ft
2020/04/05 18:28 KHOU 051828Z 04013KT 10SM SCT024 BKN034 BKN120 22/16 A3003 RMK AO2 T02220161
 
KSGR - Houston/Sugar La, Texas, USA
Distance from station: SSW 32mi, 51km
Updated: 04/05/2020 1:01pm
Mostly cloudy
Mostly cloudy
 Wind from ENE
Wind: ENE 13 mph , 20 km/h
Temperature: 72°F , 22°C
Dew Point: 61°F , 16°C
Humidity: 69%
Barometer: 30.03 inHg , 1016.9 hPa
Clouds: Mostly cloudy
Visibility: 10 miles , 16 km
Cloud details: Mostly cloudy 2300 ft
2020/04/05 18:01 KSGR 051801Z 06011KT 10SM BKN023 22/16 A3003 RMK AO2 T02170161
K6R3 - Cleveland Muni, Texas, USA
Distance from station: NE 36mi, 58km
Updated: 04/05/2020 1:35pm
Overcast
Overcast
 Wind from calm
Wind: Calm
Temperature: 66°F , 19°C
Dew Point: 61°F , 16°C
Humidity: 83%
Barometer: 30.08 inHg , 1018.6 hPa
Clouds: Overcast
Visibility: 7 miles , 11 km
Cloud details: Mostly cloudy 1100 ft
Mostly cloudy 1700 ft
Overcast 2300 ft
2020/04/05 18:35 K6R3 051835Z AUTO 00000KT 7SM BKN011 BKN017 OVC023 19/16 A3008 RMK AO2 T01900161
 
KAXH - Houston/Southwst, Texas, USA
Distance from station: S 37mi, 60km
Updated: 04/05/2020 1:35pm
Overcast
Overcast
 Wind from E
Wind: E 13 mph , 20 km/h, Gust: 20 mph , 31 km/h
Temperature: 73°F , 23°C
Dew Point: 63°F , 17°C
Humidity: 69%
Barometer: 30.03 inHg , 1016.9 hPa
Clouds: Overcast
Visibility: 10 miles , 16 km
Cloud details: Partly cloudy 2100 ft
Overcast 3100 ft
2020/04/05 18:35 KAXH 051835Z AUTO 09011G17KT 10SM SCT021 OVC031 23/17 A3003 RMK AO2 T02250169
KEFD - Houston/Ellingto, Texas, USA
Distance from station: SSE 37mi, 60km
Updated: 04/05/2020 12:50pm
Mostly cloudy
Mostly cloudy
 Wind from NNE
Wind: NNE 12 mph , 19 km/h
Temperature: 72°F , 22°C
Dew Point: 61°F , 16°C
Humidity: 69%
Barometer: 30.03 inHg , 1016.9 hPa
Clouds: Mostly cloudy
Visibility: 10 miles , 16 km
Cloud details: Partly cloudy 2800 ft
Mostly cloudy 3500 ft
2020/04/05 17:50 KEFD 051750Z 03010KT 10SM SCT028 BKN035 22/16 A3003
 
KLVJ - Houston, Texas, USA
Distance from station: SSE 40mi, 64km
Updated: 04/05/2020 12:53pm
Mostly cloudy
Mostly cloudy
 Wind from ENE
Wind: ENE 15 mph , 24 km/h
Temperature: 73°F , 23°C
Dew Point: 57°F , 14°C
Humidity: 57%
Barometer: 30.05 inHg , 1017.6 hPa
Clouds: Mostly cloudy
Visibility: 9 miles , 14 km
Cloud details: Mostly cloudy 3000 ft
2020/04/05 17:53 KLVJ 051753Z AUTO 07013KT 9SM BKN030 23/14 A3005 RMK AO2 SLP174 T02280144 10233 20172 58003
KUTS - Huntsville, Texas, USA
Distance from station: N 48mi, 78km
Updated: 04/05/2020 1:04pm
Overcast
Overcast
 Wind from varies
Wind: varies 3 mph , 6 km/h
Temperature: 63°F , 17°C
Dew Point: 57°F , 14°C
Humidity: 83%
Barometer: 30.09 inHg , 1019 hPa
Clouds: Overcast
Visibility: 9 miles , 14 km
Cloud details: Overcast 700 ft
2020/04/05 18:04 KUTS 051804Z AUTO VRB03KT 9SM OVC007 17/14 A3009 RMK AO2 CIG 005V011 T01720144